createdAt,value
2023-09-08T00:02:00.658Z,14.80
2023-09-08T00:04:34.302Z,14.70
2023-09-08T00:07:06.918Z,14.70
2023-09-08T00:09:39.122Z,14.70
2023-09-08T00:12:11.445Z,14.60
2023-09-08T00:14:44.054Z,14.70
2023-09-08T00:17:16.376Z,14.50
2023-09-08T00:19:48.572Z,14.50
2023-09-08T00:22:21.022Z,14.50
2023-09-08T00:24:53.166Z,14.40
2023-09-08T00:27:25.343Z,14.30
2023-09-08T00:29:58.037Z,14.30
2023-09-08T00:32:30.372Z,14.30
2023-09-08T00:35:02.810Z,14.20
2023-09-08T00:37:35.542Z,14.40
2023-09-08T00:40:09.975Z,14.30
2023-09-08T00:42:42.454Z,14.20
2023-09-08T00:45:14.628Z,14.40
2023-09-08T00:47:47.291Z,14.30
2023-09-08T00:50:19.575Z,14.30
2023-09-08T00:52:52.405Z,14.20
2023-09-08T00:55:24.835Z,14.10
2023-09-08T00:57:57.251Z,14.10
2023-09-08T01:00:29.741Z,14.00
2023-09-08T01:03:02.050Z,14.10
2023-09-08T01:05:35.720Z,14.10
2023-09-08T01:08:08.815Z,14.00
2023-09-08T01:10:43.306Z,13.90
2023-09-08T01:13:15.513Z,13.90
2023-09-08T01:15:47.829Z,14.00
2023-09-08T01:18:20.190Z,14.10
2023-09-08T01:21:15.789Z,14.00
2023-09-08T01:24:00.862Z,13.90
2023-09-08T01:26:41.753Z,13.90
2023-09-08T01:29:15.975Z,14.00
2023-09-08T01:31:48.932Z,14.10
2023-09-08T01:34:21.426Z,14.00
2023-09-08T01:36:53.611Z,14.00
2023-09-08T01:39:25.829Z,13.90
2023-09-08T01:41:58.288Z,13.80
2023-09-08T01:44:30.585Z,13.70
2023-09-08T01:47:02.765Z,13.80
2023-09-08T01:49:34.986Z,13.70
2023-09-08T01:52:07.546Z,13.70
2023-09-08T01:54:41.099Z,13.70
2023-09-08T01:57:13.294Z,13.70
2023-09-08T01:59:46.150Z,13.60
2023-09-08T02:02:18.669Z,13.70
2023-09-08T02:04:50.962Z,13.70
2023-09-08T02:07:23.768Z,13.70
2023-09-08T02:09:57.857Z,13.70
2023-09-08T02:12:29.999Z,13.60
2023-09-08T02:15:02.388Z,13.70
2023-09-08T02:17:36.243Z,13.70
2023-09-08T02:20:08.926Z,13.60
2023-09-08T02:22:41.024Z,13.60
2023-09-08T02:25:15.136Z,13.60
2023-09-08T02:27:47.733Z,13.50
2023-09-08T02:30:20.825Z,13.60
2023-09-08T02:32:53.497Z,13.60
2023-09-08T02:35:26.086Z,13.60
2023-09-08T02:38:00.328Z,13.50
2023-09-08T02:40:36.157Z,13.50
2023-09-08T02:43:09.618Z,13.50
2023-09-08T02:45:42.020Z,13.40
2023-09-08T02:48:14.295Z,13.40
2023-09-08T02:50:46.512Z,13.40
2023-09-08T02:53:18.813Z,13.40
2023-09-08T02:55:50.970Z,13.30
2023-09-08T02:58:23.677Z,13.20
2023-09-08T03:00:55.857Z,13.40
2023-09-08T03:03:28.078Z,13.30
2023-09-08T03:06:04.457Z,13.30
2023-09-08T03:08:38.391Z,13.20
2023-09-08T03:11:10.495Z,13.30
2023-09-08T03:13:42.777Z,13.30
2023-09-08T03:16:16.008Z,13.20
2023-09-08T03:18:48.225Z,13.10
2023-09-08T03:21:20.427Z,13.10
2023-09-08T03:23:52.757Z,13.20
2023-09-08T03:26:25.056Z,13.20
2023-09-08T03:28:57.398Z,13.10
2023-09-08T03:31:30.207Z,13.10
2023-09-08T03:34:02.593Z,13.00
2023-09-08T03:36:37.816Z,13.00
2023-09-08T03:39:10.830Z,13.00
2023-09-08T03:41:43.899Z,12.90
2023-09-08T03:44:16.622Z,13.00
2023-09-08T03:46:48.922Z,13.00
2023-09-08T03:49:21.614Z,13.00
2023-09-08T03:51:53.983Z,13.00
2023-09-08T03:54:26.497Z,13.00
2023-09-08T03:56:58.774Z,13.00
2023-09-08T03:59:31.315Z,13.00
2023-09-08T04:02:03.550Z,13.00
2023-09-08T04:04:35.767Z,12.90
2023-09-08T04:07:08.002Z,12.90
2023-09-08T04:09:40.562Z,12.80
2023-09-08T04:12:13.759Z,12.60
2023-09-08T04:14:46.112Z,12.50
2023-09-08T04:17:19.600Z,12.60
2023-09-08T04:19:51.784Z,12.60
2023-09-08T04:22:23.995Z,12.60
2023-09-08T04:24:57.445Z,12.60
2023-09-08T04:27:30.203Z,12.60
2023-09-08T04:30:02.670Z,12.60
2023-09-08T04:32:35.373Z,12.60
2023-09-08T04:35:08.903Z,12.60
2023-09-08T04:37:41.715Z,12.70
2023-09-08T04:40:14.057Z,12.70
2023-09-08T04:42:47.246Z,12.60
2023-09-08T04:45:19.643Z,12.70
2023-09-08T04:47:52.135Z,12.70
2023-09-08T04:50:25.901Z,12.70
2023-09-08T04:52:58.451Z,12.70
2023-09-08T04:55:31.896Z,12.70
2023-09-08T04:58:04.211Z,12.80
2023-09-08T05:00:38.654Z,12.80
2023-09-08T05:03:11.038Z,12.80
2023-09-08T05:05:43.837Z,12.90
2023-09-08T05:08:16.895Z,12.80
2023-09-08T05:10:49.334Z,12.80
2023-09-08T05:13:31.374Z,12.90
2023-09-08T05:16:12.987Z,12.90
2023-09-08T05:18:55.775Z,12.90
2023-09-08T05:21:28.176Z,12.90
2023-09-08T05:24:00.838Z,12.90
2023-09-08T05:26:33.707Z,12.90
2023-09-08T05:29:06.122Z,12.90
2023-09-08T05:31:38.916Z,12.90
2023-09-08T05:34:11.490Z,13.00
2023-09-08T05:36:44.008Z,13.00
2023-09-08T05:39:16.902Z,13.10
2023-09-08T05:41:49.695Z,13.10
2023-09-08T05:44:22.030Z,13.20
2023-09-08T05:46:56.451Z,13.20
2023-09-08T05:49:29.993Z,13.30
2023-09-08T05:52:02.410Z,13.40
2023-09-08T05:54:36.550Z,13.40
2023-09-08T05:57:09.537Z,13.50
2023-09-08T05:59:41.730Z,13.50
2023-09-08T06:02:14.356Z,13.60
2023-09-08T06:04:46.889Z,13.70
2023-09-08T06:07:19.576Z,13.80
2023-09-08T06:09:52.035Z,13.90
2023-09-08T06:12:24.259Z,14.00
2023-09-08T06:14:56.667Z,14.10
2023-09-08T06:17:29.100Z,14.20
2023-09-08T06:20:01.374Z,14.30
2023-09-08T06:22:33.675Z,14.50
2023-09-08T06:25:06.674Z,14.60
2023-09-08T06:27:39.048Z,14.70
2023-09-08T06:30:12.142Z,14.80
2023-09-08T06:32:44.633Z,15.00
2023-09-08T06:35:17.998Z,15.20
2023-09-08T06:37:50.612Z,15.30
2023-09-08T06:40:22.980Z,15.50
2023-09-08T06:42:56.552Z,15.60
2023-09-08T06:45:42.171Z,15.80
2023-09-08T06:48:14.802Z,16.00
2023-09-08T06:50:47.333Z,16.10
2023-09-08T06:53:19.498Z,16.40
2023-09-08T06:55:51.798Z,16.60
2023-09-08T06:58:24.143Z,16.80
2023-09-08T07:00:56.698Z,16.90
2023-09-08T07:03:29.835Z,17.00
2023-09-08T07:06:02.883Z,17.20
2023-09-08T07:08:35.407Z,17.40
2023-09-08T07:11:07.957Z,17.70
2023-09-08T07:13:40.560Z,17.80
2023-09-08T07:16:13.355Z,18.00
2023-09-08T07:18:46.208Z,18.20
2023-09-08T07:21:18.883Z,18.20
2023-09-08T07:23:51.215Z,18.40
2023-09-08T07:26:24.344Z,18.60
2023-09-08T07:28:57.019Z,18.70
2023-09-08T07:31:29.257Z,18.90
2023-09-08T07:34:01.771Z,19.10
2023-09-08T07:36:34.093Z,19.10
2023-09-08T07:39:06.397Z,19.20
2023-09-08T07:41:40.694Z,19.30
2023-09-08T07:44:15.114Z,19.30
2023-09-08T07:46:50.255Z,19.50
2023-09-08T07:49:22.804Z,19.60
2023-09-08T07:51:55.153Z,19.90
2023-09-08T07:54:27.463Z,19.90
2023-09-08T07:56:59.699Z,19.80
2023-09-08T07:59:32.421Z,20.00
2023-09-08T08:02:05.147Z,20.20
2023-09-08T08:04:37.629Z,20.40
2023-09-08T08:07:09.763Z,20.50
2023-09-08T08:09:43.475Z,20.60
2023-09-08T08:12:15.716Z,20.80
2023-09-08T08:14:48.809Z,20.80
2023-09-08T08:17:21.552Z,20.80
2023-09-08T08:19:53.876Z,20.70
2023-09-08T08:22:29.626Z,20.80
2023-09-08T08:25:02.886Z,20.90
2023-09-08T08:27:36.042Z,21.10
2023-09-08T08:30:09.111Z,21.10
2023-09-08T08:32:41.374Z,21.10
2023-09-08T08:35:13.642Z,21.20
2023-09-08T08:37:46.331Z,21.20
2023-09-08T08:40:18.783Z,21.20
2023-09-08T08:42:56.923Z,21.40
2023-09-08T08:45:30.586Z,21.40
2023-09-08T08:48:05.215Z,21.50
2023-09-08T08:50:38.820Z,21.50
2023-09-08T08:53:13.854Z,21.60
2023-09-08T08:55:47.189Z,21.60
2023-09-08T08:58:26.168Z,21.50
2023-09-08T09:01:00.497Z,21.60
2023-09-08T09:03:33.207Z,21.70
2023-09-08T09:06:06.781Z,21.90
2023-09-08T09:08:39.904Z,21.90
2023-09-08T09:11:12.686Z,22.00
2023-09-08T09:13:44.906Z,22.00
2023-09-08T09:16:17.300Z,22.10
2023-09-08T09:19:01.740Z,22.20
2023-09-08T09:21:45.928Z,22.20
2023-09-08T09:24:29.170Z,22.30
2023-09-08T09:27:02.536Z,22.20
2023-09-08T09:29:44.925Z,22.30
2023-09-08T09:32:18.172Z,22.30
2023-09-08T09:34:55.007Z,22.40
2023-09-08T09:37:27.306Z,22.50
2023-09-08T09:40:01.568Z,22.50
2023-09-08T09:42:34.167Z,22.50
2023-09-08T09:45:07.911Z,22.60
2023-09-08T09:47:40.215Z,22.70
2023-09-08T09:50:13.908Z,22.80
2023-09-08T09:52:49.776Z,22.80
2023-09-08T09:55:22.199Z,22.90
2023-09-08T09:58:05.100Z,22.90
2023-09-08T10:00:38.576Z,23.00
2023-09-08T10:03:12.062Z,23.20
2023-09-08T10:05:44.604Z,23.40
2023-09-08T10:08:16.800Z,23.50
2023-09-08T10:10:49.457Z,23.60
2023-09-08T10:13:33.050Z,23.60
2023-09-08T10:16:06.996Z,23.80
2023-09-08T10:21:17.957Z,23.80
2023-09-08T10:24:06.687Z,23.90
2023-09-08T10:26:44.511Z,24.00
2023-09-08T10:29:16.791Z,24.10
2023-09-08T10:31:49.350Z,24.30
2023-09-08T10:34:23.034Z,24.50
2023-09-08T10:36:55.830Z,24.60
2023-09-08T10:39:33.408Z,24.70
2023-09-08T10:42:18.086Z,24.70
2023-09-08T10:44:53.288Z,24.70
2023-09-08T10:47:46.699Z,24.70
2023-09-08T10:50:20.241Z,24.80
2023-09-08T10:53:18.390Z,24.90
2023-09-08T10:58:34.191Z,25.10
2023-09-08T11:01:07.227Z,25.20
2023-09-08T11:03:39.502Z,25.30
2023-09-08T11:06:13.108Z,25.50
2023-09-08T11:08:46.573Z,25.60
2023-09-08T11:11:19.020Z,25.70
2023-09-08T11:13:51.371Z,25.80
2023-09-08T11:16:30.723Z,25.80
2023-09-08T11:19:06.172Z,26.00
2023-09-08T11:21:40.969Z,26.10
2023-09-08T11:24:16.388Z,26.30
2023-09-08T11:26:51.505Z,26.40
2023-09-08T11:29:24.759Z,26.60
2023-09-08T11:31:57.078Z,26.80
2023-09-08T11:34:30.363Z,27.40
2023-09-08T11:37:09.157Z,28.00
2023-09-08T11:39:41.879Z,28.70
2023-09-08T11:42:16.980Z,29.00
2023-09-08T11:44:50.599Z,29.50
2023-09-08T11:47:22.931Z,30.20
2023-09-08T11:49:55.744Z,30.50
2023-09-08T11:52:27.902Z,30.60
2023-09-08T11:55:07.127Z,30.80
2023-09-08T11:57:41.925Z,31.20
2023-09-08T12:00:18.603Z,30.80
2023-09-08T12:02:51.836Z,31.50
2023-09-08T12:05:29.589Z,31.80
2023-09-08T12:08:08.726Z,32.00
2023-09-08T12:10:42.869Z,32.00
2023-09-08T12:13:22.349Z,32.10
2023-09-08T12:15:54.673Z,32.30
2023-09-08T12:18:41.130Z,32.30
2023-09-08T12:21:14.049Z,32.60
2023-09-08T12:23:51.686Z,33.00
2023-09-08T12:26:26.869Z,32.90
2023-09-08T12:28:59.157Z,32.90
2023-09-08T12:31:31.434Z,32.80
2023-09-08T12:34:03.961Z,32.70
2023-09-08T12:36:37.546Z,32.70
2023-09-08T12:39:10.048Z,32.80
2023-09-08T12:41:42.400Z,32.70
2023-09-08T12:44:15.093Z,32.70
2023-09-08T12:46:47.266Z,32.90
2023-09-08T12:49:19.563Z,33.00
2023-09-08T12:51:52.074Z,33.00
2023-09-08T12:54:24.243Z,33.30
2023-09-08T12:56:56.867Z,32.80
2023-09-08T12:59:29.323Z,33.10
2023-09-08T13:02:01.900Z,33.20
2023-09-08T13:04:34.295Z,33.50
2023-09-08T13:07:06.618Z,33.40
2023-09-08T13:09:39.401Z,33.90
2023-09-08T13:12:14.000Z,34.30
2023-09-08T13:14:46.240Z,34.30
2023-09-08T13:17:19.073Z,34.40
2023-09-08T13:19:51.278Z,34.30
2023-09-08T13:22:23.738Z,34.40
2023-09-08T13:24:56.865Z,34.30
2023-09-08T13:27:29.584Z,34.50
2023-09-08T13:30:12.608Z,34.30
2023-09-08T13:32:46.718Z,34.00
2023-09-08T13:35:20.390Z,34.30
2023-09-08T13:37:52.647Z,34.40
2023-09-08T13:40:25.116Z,34.20
2023-09-08T13:42:57.496Z,34.70
2023-09-08T13:45:30.000Z,35.00
2023-09-08T13:48:03.199Z,35.20
2023-09-08T13:50:37.717Z,34.90
2023-09-08T13:53:14.602Z,35.20
2023-09-08T13:55:50.514Z,35.20
2023-09-08T13:58:26.641Z,35.00
2023-09-08T14:01:00.269Z,35.40
2023-09-08T14:03:43.076Z,35.10
2023-09-08T14:06:29.543Z,34.80
2023-09-08T14:09:40.793Z,35.10
2023-09-08T14:14:48.474Z,35.00
2023-09-08T14:17:20.604Z,34.90
2023-09-08T14:19:52.886Z,34.70
2023-09-08T14:22:25.940Z,34.60
2023-09-08T14:24:58.095Z,34.60
2023-09-08T14:27:30.704Z,34.40
2023-09-08T14:30:02.900Z,34.40
2023-09-08T14:32:35.199Z,34.50
2023-09-08T14:35:07.779Z,34.50
2023-09-08T14:37:40.125Z,34.60
2023-09-08T14:40:12.778Z,34.50
2023-09-08T14:42:45.048Z,34.30
2023-09-08T14:45:17.294Z,34.30
2023-09-08T14:47:49.538Z,34.00
2023-09-08T14:50:21.815Z,33.80
2023-09-08T14:52:54.124Z,33.10
2023-09-08T14:55:26.518Z,32.60
2023-09-08T14:57:58.639Z,32.10
2023-09-08T15:00:30.808Z,31.40
2023-09-08T15:03:05.793Z,31.00
2023-09-08T15:05:38.342Z,30.60
2023-09-08T15:08:10.700Z,30.40
2023-09-08T15:10:43.049Z,30.10
2023-09-08T15:13:15.792Z,29.90
2023-09-08T15:15:48.844Z,29.40
2023-09-08T15:18:24.107Z,29.30
2023-09-08T15:20:58.132Z,29.20
2023-09-08T15:23:30.565Z,29.20
2023-09-08T15:26:03.229Z,29.00
2023-09-08T15:28:35.489Z,29.00
2023-09-08T15:31:08.043Z,29.00
2023-09-08T15:33:40.857Z,29.10
2023-09-08T15:36:13.736Z,29.10
2023-09-08T15:38:46.014Z,29.00
2023-09-08T15:41:19.005Z,29.00
2023-09-08T15:43:54.826Z,28.90
2023-09-08T15:46:27.795Z,28.70
2023-09-08T15:49:00.039Z,28.50
2023-09-08T15:51:32.267Z,28.40
2023-09-08T15:54:05.458Z,28.40
2023-09-08T15:56:37.998Z,28.20
2023-09-08T15:59:10.115Z,28.20
2023-09-08T16:01:42.736Z,28.30
2023-09-08T16:04:16.162Z,28.40
2023-09-08T16:06:49.458Z,28.60
2023-09-08T16:09:21.712Z,28.70
2023-09-08T16:11:53.935Z,28.80
2023-09-08T16:14:26.135Z,28.70
2023-09-08T16:16:58.371Z,28.70
2023-09-08T16:19:30.637Z,28.70
2023-09-08T16:22:03.020Z,28.60
2023-09-08T16:24:35.883Z,28.50
2023-09-08T16:27:08.084Z,28.20
2023-09-08T16:29:41.056Z,28.10
2023-09-08T16:32:13.565Z,27.80
2023-09-08T16:34:45.770Z,27.60
2023-09-08T16:37:17.969Z,27.40
2023-09-08T16:39:50.176Z,27.20
2023-09-08T16:42:22.439Z,27.00
2023-09-08T16:44:54.611Z,26.90
2023-09-08T16:47:26.968Z,26.70
2023-09-08T16:49:59.269Z,26.60
2023-09-08T16:52:31.600Z,26.50
2023-09-08T16:55:04.127Z,26.50
2023-09-08T16:57:36.546Z,26.30
2023-09-08T17:00:09.785Z,26.30
2023-09-08T17:02:42.195Z,26.10
2023-09-08T17:05:18.670Z,26.00
2023-09-08T17:07:52.511Z,26.00
2023-09-08T17:10:25.353Z,25.80
2023-09-08T17:12:58.767Z,25.70
2023-09-08T17:15:31.190Z,25.60
2023-09-08T17:18:03.580Z,25.50
2023-09-08T17:20:36.230Z,25.50
2023-09-08T17:23:08.816Z,25.30
2023-09-08T17:25:41.086Z,25.20
2023-09-08T17:28:13.785Z,25.10
2023-09-08T17:30:47.827Z,25.00
2023-09-08T17:33:20.496Z,24.90
2023-09-08T17:35:52.691Z,24.80
2023-09-08T17:38:24.981Z,24.70
2023-09-08T17:40:59.611Z,24.50
2023-09-08T17:43:33.490Z,24.40
2023-09-08T17:46:05.784Z,24.30
2023-09-08T17:48:38.075Z,24.10
2023-09-08T17:51:10.317Z,24.10
2023-09-08T17:53:43.208Z,23.90
2023-09-08T17:56:15.497Z,23.80
2023-09-08T17:58:47.821Z,23.70
2023-09-08T18:01:20.080Z,23.70
2023-09-08T18:03:52.480Z,23.60
2023-09-08T18:06:24.779Z,23.50
2023-09-08T18:08:57.489Z,23.40
2023-09-08T18:11:29.659Z,23.30
2023-09-08T18:14:01.867Z,23.20
2023-09-08T18:16:36.722Z,23.10
2023-09-08T18:19:09.379Z,23.00
2023-09-08T18:21:41.679Z,22.80
2023-09-08T18:24:13.832Z,22.70
2023-09-08T18:26:46.047Z,22.60
2023-09-08T18:29:18.665Z,22.50
2023-09-08T18:31:51.269Z,22.40
2023-09-08T18:34:24.698Z,22.30
2023-09-08T18:36:56.911Z,22.20
2023-09-08T18:39:29.221Z,22.10
2023-09-08T18:42:01.531Z,22.10
2023-09-08T18:44:41.330Z,22.00
2023-09-08T18:47:13.502Z,21.90
2023-09-08T18:49:45.811Z,21.80
2023-09-08T18:52:20.344Z,21.70
2023-09-08T18:54:52.816Z,21.70
2023-09-08T18:57:26.528Z,21.60
2023-09-08T18:59:58.949Z,21.50
2023-09-08T19:02:31.683Z,21.40
2023-09-08T19:05:05.295Z,21.40
2023-09-08T19:07:37.605Z,21.30
2023-09-08T19:10:10.097Z,21.20
2023-09-08T19:12:42.275Z,21.10
2023-09-08T19:15:14.471Z,21.10
2023-09-08T19:17:47.191Z,21.00
2023-09-08T19:20:19.871Z,20.90
2023-09-08T19:22:52.162Z,20.90
2023-09-08T19:25:24.643Z,20.80
2023-09-08T19:27:57.692Z,20.80
2023-09-08T19:30:30.683Z,20.70
2023-09-08T19:33:02.989Z,20.70
2023-09-08T19:35:36.425Z,20.60
2023-09-08T19:38:08.605Z,20.50
2023-09-08T19:40:41.019Z,20.50
2023-09-08T19:43:13.682Z,20.40
2023-09-08T19:45:45.845Z,20.40
2023-09-08T19:48:18.278Z,20.40
2023-09-08T19:50:50.653Z,20.30
2023-09-08T19:53:24.036Z,20.30
2023-09-08T19:55:59.003Z,20.20
2023-09-08T19:58:31.211Z,20.10
2023-09-08T20:01:07.620Z,20.00
2023-09-08T20:03:40.205Z,20.00
2023-09-08T20:06:16.640Z,19.90
2023-09-08T20:08:49.067Z,19.80
2023-09-08T20:11:24.023Z,19.80
2023-09-08T20:14:10.401Z,19.80
2023-09-08T20:16:45.134Z,19.80
2023-09-08T20:19:17.961Z,19.70
2023-09-08T20:21:50.559Z,19.70
2023-09-08T20:24:23.076Z,19.60
2023-09-08T20:26:55.967Z,19.60
2023-09-08T20:29:29.838Z,19.50
2023-09-08T20:32:02.064Z,19.40
2023-09-08T20:34:34.464Z,19.50
2023-09-08T20:37:06.596Z,19.40
2023-09-08T20:39:39.060Z,19.40
2023-09-08T20:42:12.860Z,19.20
2023-09-08T20:44:45.415Z,19.20
2023-09-08T20:47:17.936Z,19.20
2023-09-08T20:49:50.099Z,19.20
2023-09-08T20:52:22.236Z,19.20
2023-09-08T20:54:54.588Z,19.20
2023-09-08T20:57:26.686Z,19.10
2023-09-08T20:59:58.961Z,19.10
2023-09-08T21:02:31.661Z,19.10
2023-09-08T21:05:04.407Z,19.00
2023-09-08T21:07:36.572Z,19.00
2023-09-08T21:10:09.184Z,18.90
2023-09-08T21:12:41.382Z,18.80
2023-09-08T21:15:13.572Z,18.80
2023-09-08T21:17:45.792Z,18.80
2023-09-08T21:20:18.305Z,18.70
2023-09-08T21:22:50.432Z,18.70
2023-09-08T21:25:23.863Z,18.60
2023-09-08T21:27:56.491Z,18.60
2023-09-08T21:30:28.736Z,18.50
2023-09-08T21:33:01.032Z,18.50
2023-09-08T21:35:33.340Z,18.50
2023-09-08T21:38:06.109Z,18.50
2023-09-08T21:40:41.993Z,18.50
2023-09-08T21:43:14.436Z,18.40
2023-09-08T21:45:52.102Z,18.30
2023-09-08T21:48:24.469Z,18.30
2023-09-08T21:50:56.700Z,18.30
2023-09-08T21:53:28.979Z,18.30
2023-09-08T21:56:01.198Z,18.30
2023-09-08T21:58:33.618Z,18.30
2023-09-08T22:01:05.818Z,18.20
2023-09-08T22:03:39.035Z,18.10
2023-09-08T22:06:11.469Z,18.10
2023-09-08T22:08:47.445Z,18.10
2023-09-08T22:11:19.584Z,18.10
2023-09-08T22:13:52.666Z,18.10
2023-09-08T22:16:26.000Z,18.00
2023-09-08T22:18:58.408Z,18.00
2023-09-08T22:21:31.120Z,18.00
2023-09-08T22:24:03.650Z,18.00
2023-09-08T22:26:36.006Z,17.80
2023-09-08T22:29:08.221Z,17.80
2023-09-08T22:31:40.453Z,17.80
2023-09-08T22:34:12.698Z,17.80
2023-09-08T22:36:44.936Z,17.80
2023-09-08T22:39:17.198Z,17.80
2023-09-08T22:41:49.445Z,17.70
2023-09-08T22:44:21.934Z,17.70
2023-09-08T22:46:54.351Z,17.70
2023-09-08T22:49:27.641Z,17.70
2023-09-08T22:52:00.306Z,17.60
2023-09-08T22:54:32.678Z,17.70
2023-09-08T22:57:05.060Z,17.70
2023-09-08T22:59:37.188Z,17.70
2023-09-08T23:02:09.713Z,17.60
2023-09-08T23:04:42.111Z,17.60
2023-09-08T23:07:14.964Z,17.40
2023-09-08T23:09:47.126Z,17.40
2023-09-08T23:12:19.367Z,17.50
2023-09-08T23:14:54.793Z,17.50
2023-09-08T23:17:28.194Z,17.40
2023-09-08T23:20:01.978Z,17.40
2023-09-08T23:22:35.721Z,17.40
2023-09-08T23:25:08.380Z,17.40
2023-09-08T23:27:40.747Z,17.40
2023-09-08T23:30:13.742Z,17.40
2023-09-08T23:32:46.562Z,17.30
2023-09-08T23:35:19.164Z,17.20
2023-09-08T23:37:51.273Z,17.10
2023-09-08T23:40:23.734Z,17.00
2023-09-08T23:42:56.400Z,17.00
2023-09-08T23:45:28.545Z,17.10
2023-09-08T23:48:00.875Z,17.10
2023-09-08T23:50:50.248Z,17.10
2023-09-08T23:53:22.447Z,17.10
2023-09-08T23:55:55.064Z,17.10
2023-09-08T23:58:27.331Z,17.00
